UNEEUNKL

Guest
Details From UNEE - KEMEROVO
To UNKL - YEMELYANOVO
Flight Number -
Tags generated
Created
Modified
Stats Distance 227 nm / 420 km
Max Altitude 25,400 ft / 7,742 m
Waypoints 4
Social Downloads 0
Likes 0
Share VATSIM

Download

Looking for another format? Having issues loading an existing format? Contact us
Advertisement - Login to hide

Notes

Basic altitude profile: - Ascent Rate: 2500ft/min - Ascent Speed: 250kts - Cruise Altitude: 35000ft - Cruise Speed: 420kts - Descent Rate: 1500ft/min - Descent Speed: 250kts Options: - Use NATs: yes - Use PACOTS: yes - Use low airways: yes - Use high airways: yes

Route

UNEE A309 NZ02 UNKL

ID Type Via Altitude Latitude Longitude Leg Dist Tot Dist Heading (true) Name
O UNEE APT - 0 ft / 0 m 55.27127˚ 86.10789˚ - 0 nm - KEMEROVO
AMOTI FIX A309 (AWY-LO) 25,400 ft / 7,742 m 55.95000˚ 89.05000˚ 107 nm 107 nm 67° / 69° -
NZ02 APT A309 (AWY-HI) 15,800 ft / 4,816 m 56.27167˚ 90.61167˚ 55 nm 163 nm 69° / 70° -
O UNKL APT - 0 ft / 0 m 56.17295˚ 92.49328˚ 63 nm 226 nm 95° / 96° YEMELYANOVO

Altitude Profile

Advertisement - Login to hide

Weather


0- 5 10 15 20 25 30 35+ Temperature / ° C

Clouds and Precipitation
Forecast for 2017-12-18 18:00 UTC. Updated 2 hours ago

Ground ~20,000 ft ~40,000 ft Winds

UNEE

Details ICAO UNEE (KEJ)
Name KEMEROVO
Region Russia
Timezone Asia/Novokuznetsk (UTC+7.0)
Stats Elevation 863 ft / 263 m (AMSL)
Location 55.271271° 86.107893°
Runways 2
Magnetic Variation 7.384° E

METAR

UNEE 181430Z 19002MPS CAVOK M16/M20 Q1042 R23/821050 NOSIG RMK QFE758

Decode

TAF

TAF UNEE 181400Z 1815/1915 18003MPS CAVOK TEMPO 1820/1903 3100 BR

Decode

Departure Runways

ID Width Length Bearing (true) Bearing (mag) Surface Threshold Offset Overrun Length
05 197 ft / 60 m 10,486 ft / 3,196 m 53.55° 46.17° Concrete 0 ft / 0 m 235 ft / 72 m
05L 155 ft / 47 m 8,637 ft / 2,633 m 55.18° 47.80° Asphalt 0 ft / 0 m 160 ft / 49 m
23 197 ft / 60 m 10,486 ft / 3,196 m 233.58° 226.20° Concrete 0 ft / 0 m 235 ft / 72 m
23R 155 ft / 47 m 8,637 ft / 2,633 m 235.20° 227.82° Asphalt 0 ft / 0 m 0 ft / 0 m

UNKL

Details ICAO UNKL (KJA)
Name YEMELYANOVO
Region Russia
Timezone Asia/Krasnoyarsk (UTC+7.0)
Stats Elevation 942 ft / 287 m (AMSL)
Location 56.172946° 92.493276°
Runways 1
Magnetic Variation 4.123° E

METAR

UNKL 181430Z 26006MPS CAVOK M05/M15 Q1036 R29/810155 NOSIG RMK QFE751

Decode

TAF

TAF UNKL 181400Z 1815/1915 26007G12MPS 9999 -SN SCT020 TEMPO 1815/1908 25012G18MPS 3500 -SN BLSN

Decode

Destination Runways

ID Width Length Bearing (true) Bearing (mag) Surface Threshold Offset Overrun Length
11 197 ft / 60 m 12,113 ft / 3,692 m 113.16° 109.04° Asphalt 0 ft / 0 m 235 ft / 72 m
29 197 ft / 60 m 12,113 ft / 3,692 m 293.21° 289.09° Asphalt 0 ft / 0 m 215 ft / 66 m

Popular Alternatives